Terminal Aerodrome Forecast
Issued by NWS Pocatello, ID

Home | Current Version | Previous Version | Text Only | Print | Product List | Glossary On
Versions: 1 2 3 4 5 6 7 8 9 10 11 12 13 14 15
000
FTUS45 KPIH 262300
TAFBYI
TAF
KBYI 262320Z 2700/2724 25006KT P6SM BKN080
     FM270300 25005KT P6SM SCT080
     FM271100 24006KT 3SM BR BKN012
     FM271600 24008KT P6SM SCT018 BKN100=

USA.gov is the U.S. government's official web portal to all federal, state and local government web resources and services.